Time;durP1;ratioP1;P1;durP2;ratioP2;P2;SDS_P1;SDS_P2;PMS_P1;PMS_P2;Temp;Humidity;BMP_temperature;BMP_pressure;BME280_temperature;BME280_humidity;BME280_pressure;Samples;Min_cycle;Max_cycle;Signal;HPM_P1;HPM_P2
2023/10/24 00:00:46;;;;;;;0.28;0.28;;;13.50;99.90;;;;;;4989361;28;20017;-77
2023/10/24 00:03:11;;;;;;;0.20;0.20;;;13.50;99.90;;;;;;5007987;28;20018;-77
2023/10/24 00:05:37;;;;;;;0.70;0.38;;;13.50;99.90;;;;;;5001799;28;20100;-77
2023/10/24 00:08:03;;;;;;;0.25;0.25;;;13.50;99.90;;;;;;5002376;28;20025;-77
2023/10/24 00:10:30;;;;;;;0.20;0.20;;;13.50;99.90;;;;;;4998722;28;20033;-77
2023/10/24 00:12:55;;;;;;;0.20;0.20;;;13.50;99.90;;;;;;5008139;28;20029;-77
2023/10/24 00:15:21;;;;;;;0.43;0.43;;;13.50;99.90;;;;;;4994412;28;20084;-77
2023/10/24 00:17:49;;;;;;;0.20;0.20;;;13.50;99.90;;;;;;5007467;28;20034;-78
2023/10/24 00:20:14;;;;;;;0.20;0.20;;;13.50;99.90;;;;;;4991836;28;20036;-77
2023/10/24 00:22:40;;;;;;;0.30;0.30;;;13.50;99.90;;;;;;5009365;28;20784;-77
2023/10/24 00:25:06;;;;;;;0.20;0.20;;;13.60;99.90;;;;;;5003187;28;20034;-77
2023/10/24 00:27:32;;;;;;;0.30;0.30;;;13.50;99.90;;;;;;4993244;28;20052;-77
2023/10/24 00:29:57;;;;;;;0.20;0.20;;;13.50;99.90;;;;;;4986469;28;20486;-78
2023/10/24 00:32:23;;;;;;;0.20;0.20;;;13.50;99.90;;;;;;4989619;28;20028;-77
2023/10/24 00:34:48;;;;;;;0.20;0.20;;;13.50;99.90;;;;;;5006176;28;20030;-77
2023/10/24 00:37:14;;;;;;;0.20;0.20;;;13.60;99.90;;;;;;5009995;28;20029;-77
2023/10/24 00:39:39;;;;;;;0.20;0.20;;;13.60;99.90;;;;;;5009333;28;20791;-77
2023/10/24 00:42:05;;;;;;;0.20;0.20;;;13.60;99.90;;;;;;5012377;28;20033;-77
2023/10/24 00:44:33;;;;;;;0.20;0.20;;;13.60;99.90;;;;;;4990867;28;20053;-77
2023/10/24 00:47:01;;;;;;;0.20;0.20;;;13.70;99.90;;;;;;5004491;28;20184;-77
2023/10/24 00:49:27;;;;;;;0.10;0.10;;;13.70;99.90;;;;;;5008107;28;20030;-77
2023/10/24 00:51:54;;;;;;;0.20;0.20;;;13.70;99.90;;;;;;5007976;28;20040;-76
2023/10/24 00:54:20;;;;;;;0.20;0.20;;;13.70;99.90;;;;;;5006374;28;20440;-77
2023/10/24 00:56:48;;;;;;;0.20;0.20;;;13.80;99.90;;;;;;4992482;28;20112;-77
2023/10/24 00:59:14;;;;;;;0.30;0.30;;;13.80;99.90;;;;;;5013116;28;20022;-77
2023/10/24 01:01:41;;;;;;;0.80;0.73;;;13.80;99.90;;;;;;4991604;28;20468;-77
2023/10/24 01:04:07;;;;;;;0.10;0.10;;;13.70;99.90;;;;;;5003975;28;20021;-77
2023/10/24 01:06:32;;;;;;;0.10;0.10;;;13.80;99.90;;;;;;5005707;28;20219;-77
2023/10/24 01:08:58;;;;;;;0.60;0.60;;;13.80;99.90;;;;;;5004122;28;20026;-77
2023/10/24 01:11:24;;;;;;;0.20;0.20;;;13.90;99.90;;;;;;5004663;28;20361;-77
2023/10/24 01:13:50;;;;;;;0.40;0.40;;;13.90;99.90;;;;;;5004796;28;20022;-77
2023/10/24 01:16:18;;;;;;;0.25;0.25;;;13.90;99.90;;;;;;5010144;28;20122;-77
2023/10/24 01:18:44;;;;;;;0.30;0.30;;;14.00;99.90;;;;;;5007989;28;20044;-77
2023/10/24 01:21:09;;;;;;;0.30;0.30;;;14.00;99.90;;;;;;5003421;28;20041;-77
2023/10/24 01:23:36;;;;;;;0.38;0.38;;;14.00;99.90;;;;;;5001823;28;20022;-77
2023/10/24 01:26:02;;;;;;;0.43;0.40;;;13.90;99.90;;;;;;5001225;28;20571;-77
2023/10/24 01:28:29;;;;;;;0.20;0.20;;;14.00;99.90;;;;;;5146618;23;20048;-78
2023/10/24 01:30:54;;;;;;;0.20;0.20;;;14.00;99.90;;;;;;5013986;28;20092;-78
2023/10/24 01:33:21;;;;;;;0.65;0.40;;;14.00;99.90;;;;;;5011485;28;20219;-78
2023/10/24 01:35:47;;;;;;;0.20;0.20;;;14.00;99.90;;;;;;5012393;28;20033;-77
2023/10/24 01:38:12;;;;;;;0.30;0.30;;;14.00;99.90;;;;;;5009522;28;20026;-77
2023/10/24 01:40:38;;;;;;;0.20;0.20;;;14.00;99.90;;;;;;4993388;28;20395;-78
2023/10/24 01:43:04;;;;;;;0.43;0.43;;;13.90;99.90;;;;;;5011740;28;20026;-78
2023/10/24 01:45:29;;;;;;;0.25;0.25;;;13.90;99.90;;;;;;5009540;28;20048;-78
2023/10/24 01:47:55;;;;;;;0.20;0.20;;;14.00;99.90;;;;;;5010999;28;20025;-78
2023/10/24 01:50:20;;;;;;;0.20;0.20;;;14.00;99.90;;;;;;4993502;28;20108;-77
2023/10/24 01:52:47;;;;;;;1.27;1.10;;;14.00;99.90;;;;;;5010483;28;20029;-77
2023/10/24 01:55:12;;;;;;;0.20;0.20;;;14.10;99.90;;;;;;5013978;28;20101;-78
2023/10/24 01:57:38;;;;;;;0.40;0.40;;;14.10;99.90;;;;;;5009862;28;20026;-77
2023/10/24 02:00:05;;;;;;;0.20;0.20;;;14.10;99.90;;;;;;5013148;28;20084;-78
2023/10/24 02:02:31;;;;;;;0.25;0.25;;;14.00;99.90;;;;;;5012630;28;20120;-77
2023/10/24 02:04:56;;;;;;;0.20;0.20;;;14.10;99.90;;;;;;5011328;28;20040;-78
2023/10/24 02:07:23;;;;;;;0.22;0.20;;;14.20;99.90;;;;;;5010632;28;20743;-77
2023/10/24 02:09:50;;;;;;;0.13;0.13;;;14.20;99.90;;;;;;5012487;28;20036;-77
2023/10/24 02:12:16;;;;;;;0.20;0.20;;;14.20;99.90;;;;;;5009328;28;20716;-78
2023/10/24 02:14:43;;;;;;;0.20;0.20;;;14.10;99.90;;;;;;5013366;28;20021;-78
2023/10/24 02:17:09;;;;;;;0.20;0.20;;;14.10;99.90;;;;;;5014827;28;20026;-77
2023/10/24 02:19:35;;;;;;;0.10;0.10;;;14.20;99.90;;;;;;5014597;28;20598;-77
2023/10/24 02:22:02;;;;;;;0.20;0.20;;;14.10;99.90;;;;;;5016530;28;20641;-78
2023/10/24 02:24:28;;;;;;;0.28;0.25;;;14.10;99.90;;;;;;4994751;28;20034;-78
2023/10/24 02:26:53;;;;;;;0.20;0.20;;;14.10;99.90;;;;;;4999741;28;20053;-77
2023/10/24 02:29:19;;;;;;;0.17;0.17;;;14.00;99.90;;;;;;5016669;28;20034;-77
2023/10/24 02:31:45;;;;;;;0.20;0.20;;;14.00;99.90;;;;;;5013516;28;20472;-77
2023/10/24 02:34:12;;;;;;;2.42;1.17;;;14.00;99.90;;;;;;5015302;28;20025;-77
2023/10/24 02:36:38;;;;;;;0.20;0.20;;;14.00;99.90;;;;;;5004019;28;20013;-77
2023/10/24 02:39:04;;;;;;;0.20;0.20;;;14.00;99.90;;;;;;5015130;28;20124;-77
2023/10/24 02:41:29;;;;;;;0.20;0.20;;;14.00;99.90;;;;;;5003762;28;20618;-78
2023/10/24 02:43:55;;;;;;;0.20;0.20;;;14.00;99.90;;;;;;4996297;28;20030;-78
2023/10/24 02:46:21;;;;;;;0.10;0.10;;;14.00;99.90;;;;;;5015114;28;20045;-79
2023/10/24 02:48:46;;;;;;;0.10;0.10;;;14.00;99.90;;;;;;5014847;28;20025;-79
2023/10/24 02:51:12;;;;;;;0.10;0.10;;;14.00;99.90;;;;;;5015163;28;20045;-80
2023/10/24 02:53:38;;;;;;;0.20;0.20;;;14.00;99.90;;;;;;4996222;28;20113;-80
2023/10/24 02:56:03;;;;;;;0.20;0.20;;;14.00;99.90;;;;;;5014392;28;20068;-80
2023/10/24 02:58:29;;;;;;;0.10;0.10;;;14.00;99.90;;;;;;4997449;28;20036;-80
2023/10/24 03:00:55;;;;;;;0.20;0.20;;;14.00;99.90;;;;;;5012433;28;20028;-80
2023/10/24 03:03:20;;;;;;;0.20;0.20;;;13.90;99.90;;;;;;5014186;28;20021;-79
2023/10/24 03:05:48;;;;;;;0.20;0.20;;;13.90;99.90;;;;;;4998183;28;20079;-80
2023/10/24 03:08:14;;;;;;;0.20;0.20;;;14.00;99.90;;;;;;5014654;28;20382;-80
2023/10/24 03:10:40;;;;;;;0.57;0.57;;;13.90;99.90;;;;;;5016710;28;20033;-79
2023/10/24 03:13:08;;;;;;;0.17;0.17;;;13.90;99.90;;;;;;4995089;28;20647;-80
2023/10/24 03:15:34;;;;;;;0.10;0.10;;;13.90;99.90;;;;;;5023045;28;20091;-80
2023/10/24 03:18:00;;;;;;;0.10;0.10;;;13.90;99.90;;;;;;5017841;28;20049;-79
2023/10/24 03:20:26;;;;;;;0.20;0.20;;;14.00;99.90;;;;;;5016303;28;20163;-80
2023/10/24 03:22:55;;;;;;;0.20;0.20;;;13.90;99.90;;;;;;5012935;28;20021;-80
2023/10/24 03:25:20;;;;;;;0.25;0.25;;;13.90;99.90;;;;;;5015355;28;20470;-79
2023/10/24 03:27:46;;;;;;;0.35;0.35;;;13.90;99.90;;;;;;4987326;28;20025;-80
2023/10/24 03:30:12;;;;;;;0.20;0.20;;;13.90;99.90;;;;;;4994085;28;20469;-79
2023/10/24 03:32:37;;;;;;;0.20;0.20;;;13.90;99.90;;;;;;4997967;28;20163;-78
2023/10/24 03:35:03;;;;;;;0.20;0.20;;;13.80;99.90;;;;;;4993422;28;20067;-77
2023/10/24 03:37:31;;;;;;;0.30;0.30;;;13.90;99.90;;;;;;4995694;28;20693;-79
2023/10/24 03:39:56;;;;;;;0.20;0.20;;;13.90;99.90;;;;;;5013930;28;20075;-80
2023/10/24 03:42:23;;;;;;;0.20;0.20;;;14.00;99.90;;;;;;4985523;28;20040;-80
2023/10/24 03:44:49;;;;;;;0.20;0.20;;;14.00;99.90;;;;;;5013607;28;20105;-79
2023/10/24 03:47:14;;;;;;;0.20;0.20;;;13.90;99.90;;;;;;4994253;28;20037;-79
2023/10/24 03:49:40;;;;;;;0.20;0.20;;;14.00;99.90;;;;;;5012430;28;20087;-78
2023/10/24 03:52:06;;;;;;;0.20;0.20;;;14.00;99.90;;;;;;5014583;28;20022;-79
2023/10/24 03:54:33;;;;;;;0.20;0.20;;;13.90;99.90;;;;;;5011037;28;20025;-80
2023/10/24 03:57:00;;;;;;;0.20;0.20;;;13.80;99.90;;;;;;4995934;28;20026;-79
2023/10/24 03:59:26;;;;;;;0.22;0.22;;;13.80;99.90;;;;;;5012977;28;20024;-80
2023/10/24 04:01:51;;;;;;;0.25;0.25;;;13.90;99.90;;;;;;5012078;28;20037;-79
2023/10/24 04:04:17;;;;;;;0.20;0.20;;;13.90;99.90;;;;;;5014062;28;20517;-79
2023/10/24 04:06:43;;;;;;;0.35;0.35;;;13.80;99.90;;;;;;5012965;28;20037;-78
2023/10/24 04:09:11;;;;;;;0.17;0.17;;;13.80;99.90;;;;;;5009787;28;20029;-80
2023/10/24 04:11:37;;;;;;;0.20;0.20;;;13.80;99.90;;;;;;4991626;28;20026;-79
2023/10/24 04:14:02;;;;;;;0.20;0.20;;;13.70;99.90;;;;;;5012239;28;20068;-80
2023/10/24 04:16:29;;;;;;;0.20;0.20;;;13.70;99.90;;;;;;5011914;28;20480;-78
2023/10/24 04:18:55;;;;;;;0.10;0.10;;;13.70;99.90;;;;;;5011326;28;20034;-77
2023/10/24 04:21:20;;;;;;;0.20;0.20;;;13.80;99.90;;;;;;5012217;28;20099;-78
2023/10/24 04:23:46;;;;;;;0.10;0.10;;;13.80;99.90;;;;;;5013038;28;20099;-78
2023/10/24 04:26:12;;;;;;;0.22;0.22;;;13.80;99.90;;;;;;5009183;28;20044;-77
2023/10/24 04:28:40;;;;;;;0.20;0.20;;;13.80;99.90;;;;;;4991907;28;20087;-80
2023/10/24 04:31:06;;;;;;;0.20;0.20;;;13.70;99.90;;;;;;5009907;28;20021;-80
2023/10/24 04:33:31;;;;;;;0.30;0.30;;;13.70;99.90;;;;;;5008564;28;20401;-80
2023/10/24 04:35:57;;;;;;;0.20;0.20;;;13.80;99.90;;;;;;4993517;28;20049;-80
2023/10/24 04:38:22;;;;;;;0.20;0.20;;;13.70;99.90;;;;;;5006898;28;20034;-80
2023/10/24 04:40:52;;;;;;;0.20;0.20;;;13.70;99.90;;;;;;5005811;28;20025;-79
2023/10/24 04:43:18;;;;;;;0.22;0.22;;;13.80;99.90;;;;;;4992643;28;20022;-79
2023/10/24 04:45:44;;;;;;;0.15;0.15;;;13.70;99.90;;;;;;5015174;28;20033;-79
2023/10/24 04:48:09;;;;;;;0.10;0.10;;;13.80;99.90;;;;;;5012680;28;20478;-79
2023/10/24 04:50:38;;;;;;;0.10;0.10;;;13.80;99.90;;;;;;5009546;28;20029;-80
2023/10/24 04:53:04;;;;;;;0.20;0.20;;;13.80;99.90;;;;;;5010940;28;20048;-79
2023/10/24 04:55:30;;;;;;;0.10;0.10;;;13.90;99.90;;;;;;5010153;28;20164;-79
2023/10/24 04:57:56;;;;;;;0.20;0.20;;;13.80;99.90;;;;;;5001050;28;20134;-79
2023/10/24 05:00:22;;;;;;;0.20;0.20;;;13.80;99.90;;;;;;5010062;28;20026;-79
2023/10/24 05:02:47;;;;;;;0.20;0.20;;;13.80;99.90;;;;;;4991429;28;20049;-79
2023/10/24 05:05:15;;;;;;;0.20;0.20;;;13.80;99.90;;;;;;5009269;28;20355;-79
2023/10/24 05:07:41;;;;;;;0.20;0.20;;;13.70;99.90;;;;;;5010745;28;20037;-79
2023/10/24 05:10:06;;;;;;;0.38;0.38;;;13.60;99.90;;;;;;4990678;28;20026;-79
2023/10/24 05:12:34;;;;;;;0.10;0.10;;;13.50;99.90;;;;;;4998742;28;20029;-79
2023/10/24 05:15:00;;;;;;;0.20;0.20;;;13.60;99.90;;;;;;5010254;28;20103;-79
2023/10/24 05:17:26;;;;;;;0.22;0.22;;;13.60;99.90;;;;;;5007007;28;20038;-79
2023/10/24 05:19:52;;;;;;;0.30;0.30;;;13.50;99.90;;;;;;5002790;28;20116;-79
2023/10/24 05:22:17;;;;;;;0.20;0.20;;;13.60;99.90;;;;;;5006045;28;20104;-77
2023/10/24 05:24:43;;;;;;;0.20;0.20;;;13.60;99.90;;;;;;5007098;28;20667;-77
2023/10/24 05:27:09;;;;;;;0.30;0.30;;;13.60;99.90;;;;;;5001767;28;20133;-78
2023/10/24 05:29:35;;;;;;;0.30;0.30;;;13.70;99.90;;;;;;4984908;28;20040;-78
2023/10/24 05:32:01;;;;;;;0.30;0.30;;;13.70;99.90;;;;;;5004560;28;20117;-76
2023/10/24 05:34:29;;;;;;;0.20;0.20;;;13.60;99.90;;;;;;5002389;28;20030;-78
2023/10/24 05:36:55;;;;;;;0.22;0.22;;;13.60;99.90;;;;;;5000301;28;20494;-77
2023/10/24 05:39:22;;;;;;;0.20;0.20;;;13.60;99.90;;;;;;4987077;28;20080;-77
2023/10/24 05:41:48;;;;;;;0.20;0.20;;;13.60;99.90;;;;;;4983350;28;20481;-77
2023/10/24 05:44:17;;;;;;;0.32;0.32;;;13.60;99.90;;;;;;5005869;28;20080;-76
2023/10/24 05:46:43;;;;;;;0.40;0.40;;;13.60;99.90;;;;;;5000881;28;20104;-77
2023/10/24 05:49:08;;;;;;;0.65;0.60;;;13.50;99.90;;;;;;5003805;28;20057;-76
2023/10/24 05:51:34;;;;;;;0.35;0.35;;;13.50;99.90;;;;;;5009635;28;20033;-78
2023/10/24 05:54:02;;;;;;;0.20;0.20;;;13.40;99.90;;;;;;5004651;28;20010;-78
2023/10/24 05:56:28;;;;;;;0.20;0.20;;;13.50;99.90;;;;;;5009572;28;20112;-78
2023/10/24 05:58:55;;;;;;;0.40;0.40;;;13.60;99.90;;;;;;5010744;28;20106;-78
2023/10/24 06:01:24;;;;;;;0.30;0.30;;;13.50;99.90;;;;;;5003568;28;20056;-78
2023/10/24 06:03:49;;;;;;;0.10;0.10;;;13.40;99.90;;;;;;5010884;28;20026;-78
2023/10/24 06:06:16;;;;;;;0.40;0.40;;;13.40;99.90;;;;;;5012338;28;20401;-78
2023/10/24 06:08:41;;;;;;;0.30;0.30;;;13.40;99.90;;;;;;5017124;28;20045;-79
2023/10/24 06:11:07;;;;;;;0.28;0.28;;;13.50;99.90;;;;;;5002772;28;20053;-78
2023/10/24 06:13:33;;;;;;;0.30;0.30;;;13.40;99.90;;;;;;5011938;28;20028;-79
2023/10/24 06:16:17;;;;;;;0.20;0.20;;;13.50;99.90;;;;;;4994594;28;20040;-78
2023/10/24 06:18:43;;;;;;;0.20;0.20;;;13.40;99.90;;;;;;5014179;28;20370;-77
2023/10/24 06:21:11;;;;;;;0.30;0.30;;;13.40;99.90;;;;;;5013079;28;20037;-77
2023/10/24 06:23:39;;;;;;;0.20;0.20;;;13.40;99.90;;;;;;4995125;28;20045;-77
2023/10/24 06:26:14;;;;;;;0.20;0.20;;;13.40;99.90;;;;;;5015403;28;20064;-77
2023/10/24 06:28:41;;;;;;;0.40;0.40;;;13.40;99.90;;;;;;5016251;28;20653;-78
2023/10/24 06:31:07;;;;;;;0.68;0.68;;;13.40;99.90;;;;;;5016454;28;20029;-77
2023/10/24 06:33:32;;;;;;;0.30;0.30;;;13.50;99.90;;;;;;5014805;28;20411;-77
2023/10/24 06:36:02;;;;;;;0.20;0.20;;;13.50;99.90;;;;;;5011213;28;20445;-75
2023/10/24 06:38:27;;;;;;;0.20;0.20;;;13.50;99.90;;;;;;5009201;28;20036;-76
2023/10/24 06:40:53;;;;;;;0.35;0.35;;;13.50;99.90;;;;;;5008133;28;20393;-77
2023/10/24 06:43:19;;;;;;;0.28;0.28;;;13.50;99.90;;;;;;5013008;28;20041;-76
2023/10/24 06:45:48;;;;;;;0.30;0.30;;;13.50;99.90;;;;;;4993749;28;20045;-77
2023/10/24 06:48:14;;;;;;;0.35;0.35;;;13.40;99.90;;;;;;4996152;28;20041;-80
2023/10/24 06:50:40;;;;;;;0.40;0.40;;;13.50;99.90;;;;;;5012483;28;20010;-80
2023/10/24 06:53:07;;;;;;;1.40;0.28;;;13.50;99.90;;;;;;5015212;28;20099;-79
2023/10/24 06:55:33;;;;;;;0.40;0.40;;;13.50;99.90;;;;;;5010832;28;20029;-81
2023/10/24 06:57:59;;;;;;;2.50;0.40;;;13.50;99.90;;;;;;4998309;28;20033;-78
2023/10/24 07:00:25;;;;;;;0.28;0.28;;;13.50;99.90;;;;;;5013083;28;20105;-79
2023/10/24 07:02:51;;;;;;;0.25;0.25;;;13.50;99.90;;;;;;5011956;28;20125;-80
2023/10/24 07:05:18;;;;;;;0.50;0.50;;;13.50;99.90;;;;;;4995825;28;20033;-79
2023/10/24 07:07:43;;;;;;;0.40;0.40;;;13.60;99.90;;;;;;5005162;28;20083;-79
2023/10/24 07:10:09;;;;;;;0.20;0.20;;;13.70;99.90;;;;;;5010428;28;20045;-79
2023/10/24 07:12:35;;;;;;;0.32;0.30;;;13.60;99.90;;;;;;5012574;28;20795;-79
2023/10/24 07:15:03;;;;;;;0.30;0.30;;;13.60;99.90;;;;;;5000308;28;20033;-79
2023/10/24 07:17:32;;;;;;;0.52;0.30;;;13.50;99.90;;;;;;4993826;28;20014;-79
2023/10/24 07:20:00;;;;;;;0.20;0.20;;;13.50;99.90;;;;;;5013038;28;20073;-79
2023/10/24 07:22:27;;;;;;;0.20;0.20;;;13.50;99.90;;;;;;5011932;28;20044;-79
2023/10/24 07:24:53;;;;;;;0.43;0.43;;;13.50;99.90;;;;;;5009713;28;20033;-81
2023/10/24 07:27:18;;;;;;;0.20;0.20;;;13.60;99.90;;;;;;5010754;28;20038;-79
2023/10/24 07:29:45;;;;;;;0.30;0.20;;;13.60;99.90;;;;;;4994238;28;20034;-79
2023/10/24 07:32:11;;;;;;;0.25;0.17;;;13.60;99.90;;;;;;5012780;28;20061;-81
2023/10/24 07:34:39;;;;;;;0.20;0.20;;;13.70;99.90;;;;;;4994277;28;20063;-81
2023/10/24 07:37:05;;;;;;;0.35;0.35;;;13.60;99.90;;;;;;5012651;28;20489;-82
2023/10/24 07:39:31;;;;;;;0.73;0.73;;;13.60;99.90;;;;;;5013497;28;20033;-81
2023/10/24 07:41:56;;;;;;;0.20;0.20;;;13.70;99.90;;;;;;5000901;28;20021;-83
2023/10/24 07:44:22;;;;;;;1.25;0.65;;;13.80;99.90;;;;;;4993759;28;20057;-80
2023/10/24 07:46:48;;;;;;;0.20;0.20;;;13.80;99.90;;;;;;5009529;28;20037;-80
2023/10/24 07:49:13;;;;;;;0.20;0.20;;;13.70;99.90;;;;;;5000229;28;20603;-81
2023/10/24 07:51:39;;;;;;;0.30;0.30;;;13.70;99.90;;;;;;5011551;28;20064;-80
2023/10/24 07:54:05;;;;;;;0.13;0.13;;;13.80;99.90;;;;;;5013319;28;20065;-82
2023/10/24 07:56:30;;;;;;;0.20;0.20;;;13.80;99.90;;;;;;4991109;28;20041;-79
2023/10/24 07:58:56;;;;;;;0.52;0.52;;;13.90;99.90;;;;;;4993155;28;20108;-79
2023/10/24 08:01:22;;;;;;;0.20;0.20;;;13.80;99.90;;;;;;5124717;23;20039;-77
2023/10/24 08:03:53;;;;;;;0.30;0.30;;;13.90;99.90;;;;;;4942268;28;20030;-77
2023/10/24 08:06:19;;;;;;;0.20;0.20;;;13.80;99.90;;;;;;4934861;28;20043;-77
2023/10/24 08:08:45;;;;;;;0.20;0.20;;;13.80;99.90;;;;;;4967558;28;20026;-78
2023/10/24 08:11:11;;;;;;;0.20;0.20;;;13.80;99.90;;;;;;4966763;28;20315;-78
2023/10/24 08:13:37;;;;;;;0.22;0.22;;;13.80;99.90;;;;;;4964827;28;20476;-78
2023/10/24 08:16:03;;;;;;;0.20;0.20;;;13.70;99.90;;;;;;4950382;28;20034;-79
2023/10/24 08:18:28;;;;;;;0.22;0.22;;;13.80;99.90;;;;;;4958843;28;20027;-78
2023/10/24 08:20:55;;;;;;;0.20;0.20;;;13.70;99.90;;;;;;4968607;28;20026;-78
2023/10/24 08:23:20;;;;;;;0.32;0.32;;;13.70;99.90;;;;;;4944385;28;20034;-79
2023/10/24 08:25:48;;;;;;;0.20;0.20;;;13.70;99.90;;;;;;4960911;28;20039;-79
2023/10/24 08:28:14;;;;;;;0.40;0.40;;;13.60;99.90;;;;;;4940762;28;20531;-79
2023/10/24 08:30:39;;;;;;;0.57;0.57;;;13.60;99.90;;;;;;4949899;28;20138;-80
2023/10/24 08:33:06;;;;;;;0.20;0.20;;;13.70;99.90;;;;;;4969272;28;20057;-80
2023/10/24 08:35:31;;;;;;;0.40;0.40;;;13.70;99.90;;;;;;4966321;28;20173;-82
2023/10/24 08:37:57;;;;;;;0.20;0.20;;;13.80;99.90;;;;;;4946975;28;20132;-80
2023/10/24 08:40:23;;;;;;;0.20;0.20;;;13.70;99.90;;;;;;4952615;28;20023;-81
2023/10/24 08:42:49;;;;;;;0.20;0.20;;;13.70;99.90;;;;;;4964901;28;20034;-81
2023/10/24 08:45:18;;;;;;;0.30;0.30;;;13.80;99.90;;;;;;4962905;28;20088;-79
2023/10/24 08:47:47;;;;;;;0.30;0.30;;;14.00;99.90;;;;;;4968017;28;20030;-80
2023/10/24 08:50:15;;;;;;;0.35;0.35;;;14.10;99.90;;;;;;4949282;28;20035;-81
2023/10/24 08:52:42;;;;;;;0.28;0.28;;;14.10;99.90;;;;;;4958147;28;20027;-80
2023/10/24 08:55:08;;;;;;;0.28;0.28;;;14.20;99.90;;;;;;4946186;28;20553;-80
2023/10/24 08:57:44;;;;;;;0.30;0.30;;;14.20;99.90;;;;;;4966275;28;20046;-82
2023/10/24 09:00:12;;;;;;;0.13;0.13;;;14.20;99.90;;;;;;4967872;28;20027;-81
2023/10/24 09:02:41;;;;;;;0.60;0.57;;;14.40;99.90;;;;;;4967340;28;20061;-80
2023/10/24 09:05:09;;;;;;;0.40;0.40;;;14.20;99.90;;;;;;4948913;28;20035;-80
2023/10/24 09:07:36;;;;;;;0.85;0.85;;;14.30;99.90;;;;;;4965601;28;20390;-80
2023/10/24 09:10:02;;;;;;;0.65;0.65;;;14.30;99.90;;;;;;4947710;28;20072;-80
2023/10/24 09:12:32;;;;;;;0.90;0.90;;;14.40;99.90;;;;;;4962432;28;20122;-80
2023/10/24 09:14:59;;;;;;;0.20;0.20;;;14.50;99.90;;;;;;4966255;28;20030;-80
2023/10/24 09:17:25;;;;;;;0.20;0.20;;;14.50;99.90;;;;;;4962320;28;20057;-81
2023/10/24 09:19:55;;;;;;;0.20;0.20;;;14.50;99.90;;;;;;4967136;28;20662;-81
2023/10/24 09:22:21;;;;;;;0.20;0.20;;;14.50;99.90;;;;;;4968144;28;20518;-80
2023/10/24 09:24:49;;;;;;;0.20;0.20;;;14.50;99.90;;;;;;4948722;28;20037;-80
2023/10/24 09:27:16;;;;;;;0.30;0.30;;;14.50;99.90;;;;;;4961927;28;20633;-81
2023/10/24 09:29:41;;;;;;;0.30;0.30;;;14.60;99.90;;;;;;4963867;28;20025;-81
2023/10/24 09:32:15;;;;;;;0.20;0.20;;;14.80;99.90;;;;;;4963519;28;20039;-81
2023/10/24 09:34:46;;;;;;;0.20;0.20;;;14.90;99.90;;;;;;4963673;28;20046;-80
2023/10/24 09:37:16;;;;;;;0.20;0.20;;;14.80;99.90;;;;;;4964623;28;20072;-80
2023/10/24 09:39:56;;;;;;;0.55;0.55;;;14.70;99.90;;;;;;4963954;28;20027;-81
2023/10/24 09:42:27;;;;;;;0.10;0.10;;;14.80;99.90;;;;;;4964189;28;20101;-80
2023/10/24 09:44:58;;;;;;;0.30;0.30;;;14.70;99.90;;;;;;4938422;28;20256;-80
2023/10/24 09:47:26;;;;;;;0.50;0.30;;;14.70;99.90;;;;;;4964887;28;20146;-82
2023/10/24 09:49:55;;;;;;;0.20;0.20;;;14.90;99.90;;;;;;4962641;28;20033;-81
2023/10/24 09:52:24;;;;;;;0.52;0.50;;;14.90;99.90;;;;;;4966133;28;20066;-81
2023/10/24 09:54:50;;;;;;;0.40;0.40;;;15.00;99.90;;;;;;4946938;28;20394;-80
2023/10/24 09:57:20;;;;;;;0.20;0.20;;;15.10;99.90;;;;;;4964801;28;20034;-80
2023/10/24 09:59:47;;;;;;;0.25;0.25;;;15.30;99.90;;;;;;4965745;28;20054;-80
2023/10/24 10:02:20;;;;;;;0.20;0.20;;;15.10;99.90;;;;;;4965364;28;20039;-79
2023/10/24 10:04:48;;;;;;;0.20;0.20;;;15.30;99.90;;;;;;4966855;28;20083;-80
2023/10/24 10:07:15;;;;;;;0.20;0.20;;;15.20;99.90;;;;;;4967389;28;20442;-80
2023/10/24 10:09:46;;;;;;;0.20;0.20;;;15.10;99.90;;;;;;4949223;28;20114;-78
2023/10/24 10:12:12;;;;;;;0.40;0.40;;;15.00;99.90;;;;;;4959909;28;20038;-79
2023/10/24 10:14:50;;;;;;;0.38;0.38;;;15.10;99.90;;;;;;4950951;28;20279;-78
2023/10/24 10:17:33;;;;;;;0.25;0.25;;;15.20;99.90;;;;;;4960259;28;20022;-78
2023/10/24 10:19:59;;;;;;;0.20;0.20;;;15.20;99.90;;;;;;4968004;28;20035;-78
2023/10/24 10:23:07;;;;;;;0.20;0.20;;;15.20;99.90;;;;;;4950663;28;20122;-79
2023/10/24 10:25:55;;;;;;;0.30;0.30;;;15.30;99.90;;;;;;4949612;28;20073;-79
2023/10/24 10:28:45;;;;;;;0.30;0.30;;;15.30;99.90;;;;;;4949838;28;20022;-78
2023/10/24 10:32:09;;;;;;;0.30;0.30;;;15.30;99.90;;;;;;4965913;28;20314;-79
2023/10/24 10:34:39;;;;;;;0.80;0.80;;;15.30;99.90;;;;;;4923433;28;20600;-78
2023/10/24 10:37:05;;;;;;;0.20;0.20;;;15.30;99.90;;;;;;4925850;29;20028;-77
2023/10/24 10:39:31;;;;;;;0.30;0.30;;;15.10;99.90;;;;;;4928946;29;20041;-80
2023/10/24 10:41:57;;;;;;;0.35;0.35;;;15.20;99.90;;;;;;4928445;29;20527;-78
2023/10/24 10:44:37;;;;;;;0.17;0.17;;;15.20;99.90;;;;;;4932963;29;20031;-78
2023/10/24 10:47:04;;;;;;;0.20;0.20;;;15.30;99.90;;;;;;4929316;29;20080;-77
2023/10/24 10:49:51;;;;;;;0.28;0.28;;;15.30;99.90;;;;;;4912860;29;20554;-78
2023/10/24 10:52:38;;;;;;;0.52;0.52;;;15.30;99.90;;;;;;4931951;29;20871;-77
2023/10/24 10:55:07;;;;;;;0.30;0.30;;;15.40;99.90;;;;;;4926555;29;20850;-79
2023/10/24 10:57:48;;;;;;;0.30;0.30;;;15.20;99.90;;;;;;4928728;29;20031;-78
2023/10/24 11:00:21;;;;;;;0.20;0.20;;;15.20;99.90;;;;;;4912807;29;20816;-77
2023/10/24 11:03:01;;;;;;;0.40;0.40;;;15.30;99.90;;;;;;4927380;29;20043;-78
2023/10/24 11:05:40;;;;;;;0.20;0.20;;;15.40;99.90;;;;;;4933806;28;20066;-78
2023/10/24 11:08:11;;;;;;;0.32;0.30;;;15.60;99.90;;;;;;4964462;28;20438;-77
2023/10/24 11:10:56;;;;;;;0.20;0.20;;;15.60;99.90;;;;;;4968291;28;20640;-78
2023/10/24 11:13:43;;;;;;;0.20;0.20;;;15.70;99.90;;;;;;4958422;28;20102;-78
2023/10/24 11:16:11;;;;;;;0.20;0.20;;;15.50;99.90;;;;;;4966446;28;20225;-81
2023/10/24 11:18:38;;;;;;;0.65;0.38;;;15.40;99.90;;;;;;4968318;28;20065;-80
2023/10/24 11:21:05;;;;;;;0.20;0.20;;;15.30;99.90;;;;;;4964477;28;20026;-79
2023/10/24 11:23:32;;;;;;;0.20;0.20;;;15.30;99.90;;;;;;4966372;28;20340;-78
2023/10/24 11:25:59;;;;;;;0.30;0.30;;;15.40;99.90;;;;;;4948561;28;20094;-78
2023/10/24 11:28:28;;;;;;;0.25;0.25;;;15.50;99.90;;;;;;4951283;28;20026;-79
2023/10/24 11:30:55;;;;;;;0.20;0.20;;;15.30;99.90;;;;;;4966809;28;20414;-78
2023/10/24 11:33:23;;;;;;;0.30;0.30;;;15.40;99.90;;;;;;4969314;28;20023;-79
2023/10/24 11:35:49;;;;;;;0.30;0.30;;;15.60;99.90;;;;;;4964574;28;20399;-78
2023/10/24 11:38:17;;;;;;;0.30;0.30;;;15.60;99.90;;;;;;4964713;28;20427;-80
2023/10/24 11:40:47;;;;;;;0.30;0.30;;;15.50;99.90;;;;;;4950061;28;20018;-79
2023/10/24 11:43:14;;;;;;;0.50;0.50;;;15.30;99.90;;;;;;4968021;28;20057;-78
2023/10/24 11:45:42;;;;;;;0.30;0.30;;;15.30;99.90;;;;;;4948142;28;20027;-78
2023/10/24 11:48:08;;;;;;;0.20;0.20;;;15.20;99.90;;;;;;4966481;28;20101;-78
2023/10/24 11:50:38;;;;;;;0.30;0.30;;;15.30;99.90;;;;;;4963098;28;20088;-78
2023/10/24 11:53:04;;;;;;;0.30;0.30;;;15.20;99.90;;;;;;4957614;28;20026;-79
2023/10/24 11:55:33;;;;;;;0.20;0.20;;;15.30;99.90;;;;;;4958657;28;20037;-78
2023/10/24 11:57:59;;;;;;;0.20;0.20;;;15.30;99.90;;;;;;4967617;28;20037;-79
2023/10/24 12:00:30;;;;;;;0.30;0.30;;;15.30;99.90;;;;;;4971020;28;20022;-78
2023/10/24 12:03:02;;;;;;;0.20;0.20;;;15.30;99.90;;;;;;4966640;28;20031;-79
2023/10/24 12:05:28;;;;;;;0.40;0.40;;;15.30;99.90;;;;;;4953472;28;20100;-79
2023/10/24 12:07:55;;;;;;;0.22;0.22;;;15.10;99.90;;;;;;4967073;28;20338;-78
2023/10/24 12:10:21;;;;;;;0.20;0.20;;;15.30;99.90;;;;;;4965925;28;20093;-78
2023/10/24 12:12:47;;;;;;;0.20;0.20;;;15.30;99.90;;;;;;4949160;28;20035;-78
2023/10/24 12:15:15;;;;;;;0.20;0.20;;;15.20;99.90;;;;;;4952084;28;20021;-78
2023/10/24 12:17:45;;;;;;;0.20;0.20;;;15.20;99.90;;;;;;4948370;28;20022;-78
2023/10/24 12:20:12;;;;;;;0.20;0.20;;;15.20;99.90;;;;;;4960740;28;20037;-78
2023/10/24 12:22:43;;;;;;;1.55;0.43;;;15.30;99.90;;;;;;4964992;28;20046;-80
2023/10/24 12:25:08;;;;;;;0.20;0.20;;;15.30;99.90;;;;;;4966500;28;20636;-80
2023/10/24 12:27:34;;;;;;;0.30;0.30;;;15.10;99.90;;;;;;4967290;28;20295;-80
2023/10/24 12:30:00;;;;;;;0.20;0.20;;;15.00;99.90;;;;;;4964652;28;20066;-81
2023/10/24 12:32:26;;;;;;;0.43;0.43;;;15.00;99.90;;;;;;4964033;28;20027;-81
2023/10/24 12:34:53;;;;;;;0.20;0.20;;;14.80;99.90;;;;;;4965544;28;20582;-80
2023/10/24 12:37:19;;;;;;;0.52;0.52;;;14.80;99.90;;;;;;4969729;28;20035;-81
2023/10/24 12:39:49;;;;;;;0.20;0.20;;;14.80;99.90;;;;;;4968991;28;20908;-80
2023/10/24 12:42:14;;;;;;;0.20;0.20;;;14.60;99.90;;;;;;4970091;28;20059;-80
2023/10/24 12:44:40;;;;;;;0.20;0.20;;;14.50;99.90;;;;;;4969797;28;20064;-79
2023/10/24 12:47:06;;;;;;;0.20;0.20;;;14.40;99.90;;;;;;4969231;28;20514;-81
2023/10/24 12:49:32;;;;;;;0.28;0.20;;;14.20;99.90;;;;;;4968055;28;20029;-80